createdAt,value
2022-08-12T00:00:32.352Z,22.80
2022-08-12T00:06:04.523Z,22.80
2022-08-12T00:11:26.389Z,22.80
2022-08-12T00:16:47.824Z,22.70
2022-08-12T00:22:10.275Z,22.60
2022-08-12T00:27:43.876Z,22.50
2022-08-12T00:33:07.090Z,22.50
2022-08-12T00:38:29.779Z,22.40
2022-08-12T00:43:35.300Z,22.40
2022-08-12T00:48:41.186Z,22.40
2022-08-12T00:53:45.936Z,22.40
2022-08-12T00:58:51.408Z,22.40
2022-08-12T01:04:13.124Z,22.40
2022-08-12T01:09:35.794Z,22.40
2022-08-12T01:14:40.917Z,22.40
2022-08-12T01:19:44.751Z,22.40
2022-08-12T01:25:03.842Z,22.50
2022-08-12T01:30:09.979Z,22.50
2022-08-12T01:35:17.544Z,22.50
2022-08-12T01:40:34.259Z,22.50
2022-08-12T01:45:46.342Z,22.50
2022-08-12T01:51:01.585Z,22.50
2022-08-12T01:56:12.513Z,22.40
2022-08-12T02:01:16.730Z,22.40
2022-08-12T02:06:44.939Z,22.40
2022-08-12T02:11:58.860Z,22.40
2022-08-12T02:17:24.155Z,22.40
2022-08-12T02:22:47.383Z,22.40
2022-08-12T02:27:54.808Z,22.30
2022-08-12T02:33:00.723Z,22.30
2022-08-12T02:38:06.729Z,22.20
2022-08-12T02:43:18.561Z,22.20
2022-08-12T02:48:30.868Z,22.20
2022-08-12T02:53:36.027Z,22.10
2022-08-12T02:58:45.444Z,22.00
2022-08-12T03:03:54.034Z,21.90
2022-08-12T03:09:00.842Z,21.90
2022-08-12T03:14:11.228Z,21.90
2022-08-12T03:19:14.871Z,21.90
2022-08-12T03:24:18.675Z,21.90
2022-08-12T03:29:31.227Z,21.90
2022-08-12T03:34:35.857Z,21.90
2022-08-12T03:39:45.004Z,21.80
2022-08-12T03:45:15.852Z,21.80
2022-08-12T03:50:37.902Z,21.80
2022-08-12T03:55:59.293Z,21.80
2022-08-12T04:01:05.773Z,21.70
2022-08-12T04:06:10.495Z,21.80
2022-08-12T04:11:32.260Z,21.80
2022-08-12T04:16:37.967Z,21.70
2022-08-12T04:21:42.137Z,21.70
2022-08-12T04:27:08.607Z,21.70
2022-08-12T04:32:13.983Z,21.60
2022-08-12T04:37:17.425Z,21.60
2022-08-12T04:42:21.360Z,21.60
2022-08-12T04:47:26.637Z,21.60
2022-08-12T04:52:34.738Z,21.60
2022-08-12T04:57:38.360Z,21.60
2022-08-12T05:02:43.884Z,21.60
2022-08-12T05:07:54.887Z,21.70
2022-08-12T05:13:01.204Z,21.60
2022-08-12T05:18:19.432Z,21.60
2022-08-12T05:23:23.615Z,21.60
2022-08-12T05:28:28.061Z,21.70
2022-08-12T05:33:37.592Z,21.70
2022-08-12T05:38:57.298Z,21.70
2022-08-12T05:44:04.828Z,21.80
2022-08-12T05:49:10.186Z,21.90
2022-08-12T05:54:13.657Z,22.00
2022-08-12T05:59:17.556Z,22.00
2022-08-12T06:04:22.271Z,22.10
2022-08-12T06:09:26.765Z,22.20
2022-08-12T06:14:31.750Z,22.30
2022-08-12T06:20:27.893Z,22.30
2022-08-12T06:25:00.511Z,22.30
2022-08-12T06:30:09.956Z,22.40
2022-08-12T06:35:24.995Z,22.30
2022-08-12T06:40:48.315Z,22.40
2022-08-12T06:45:51.878Z,22.40
2022-08-12T06:50:57.598Z,22.40
2022-08-12T06:56:01.620Z,22.50
2022-08-12T07:01:05.600Z,22.60
2022-08-12T07:06:11.708Z,22.60
2022-08-12T07:11:16.132Z,22.70
2022-08-12T07:16:21.062Z,22.70
2022-08-12T07:21:59.938Z,22.80
2022-08-12T07:26:50.927Z,22.90
2022-08-12T07:31:59.325Z,23.00
2022-08-12T07:37:04.007Z,23.10
2022-08-12T07:42:07.817Z,23.20
2022-08-12T07:47:12.730Z,23.20
2022-08-12T07:52:17.613Z,23.30
2022-08-12T07:57:21.929Z,23.40
2022-08-12T08:02:26.750Z,23.50
2022-08-12T08:07:32.083Z,23.50
2022-08-12T08:12:53.095Z,23.60
2022-08-12T08:18:02.666Z,23.70
2022-08-12T08:23:10.530Z,23.80
2022-08-12T08:28:17.154Z,23.80
2022-08-12T08:33:23.612Z,23.90
2022-08-12T08:38:55.956Z,24.00
2022-08-12T08:44:03.146Z,24.10
2022-08-12T08:49:06.559Z,24.20
2022-08-12T08:54:12.162Z,24.20
2022-08-12T08:59:15.860Z,24.30
2022-08-12T09:05:09.417Z,24.40
2022-08-12T09:10:02.487Z,24.50
2022-08-12T09:15:16.752Z,24.50
2022-08-12T09:20:28.009Z,24.70
2022-08-12T09:25:35.495Z,24.80
2022-08-12T09:30:41.423Z,25.00
2022-08-12T09:35:46.216Z,25.10
2022-08-12T09:41:01.466Z,25.20
2022-08-12T09:46:22.178Z,25.40
2022-08-12T09:51:37.585Z,25.60
2022-08-12T09:57:02.238Z,25.70
2022-08-12T10:02:45.195Z,25.70
2022-08-12T10:07:39.385Z,25.90
2022-08-12T10:13:07.257Z,26.00
2022-08-12T10:18:14.531Z,26.10
2022-08-12T10:23:19.042Z,26.20
2022-08-12T10:29:03.201Z,26.20
2022-08-12T10:34:23.483Z,26.30
2022-08-12T10:40:01.132Z,26.40
2022-08-12T10:45:03.765Z,26.50
2022-08-12T10:50:35.860Z,26.60
2022-08-12T10:55:33.766Z,26.70
2022-08-12T11:01:25.797Z,26.80
2022-08-12T11:07:05.151Z,26.90
2022-08-12T11:12:35.247Z,27.00
2022-08-12T11:17:34.293Z,27.10
2022-08-12T11:22:24.982Z,27.10
2022-08-12T11:27:29.590Z,27.20
2022-08-12T11:32:38.618Z,27.20
2022-08-12T11:37:58.804Z,27.30
2022-08-12T11:43:18.568Z,27.40
2022-08-12T11:48:26.904Z,27.50
2022-08-12T11:53:57.431Z,27.70
2022-08-12T12:01:57.637Z,27.90
2022-08-12T12:04:28.813Z,28.00
2022-08-12T12:09:52.837Z,28.10
2022-08-12T12:15:00.479Z,28.20
2022-08-12T12:20:13.900Z,28.30
2022-08-12T12:25:19.796Z,28.40
2022-08-12T12:30:29.747Z,28.60
2022-08-12T12:36:18.695Z,28.70
2022-08-12T12:40:58.915Z,28.90
2022-08-12T12:46:02.327Z,29.00
2022-08-12T12:51:48.118Z,29.10
2022-08-12T12:56:44.484Z,29.20
2022-08-12T13:01:48.085Z,29.40
2022-08-12T13:06:54.918Z,29.50
2022-08-12T13:12:01.558Z,29.70
2022-08-12T13:17:06.086Z,29.90
2022-08-12T13:22:20.411Z,29.90
2022-08-12T13:27:35.765Z,30.00
2022-08-12T13:32:40.817Z,30.00
2022-08-12T13:37:55.308Z,30.00
2022-08-12T13:43:01.890Z,30.00
2022-08-12T13:48:09.189Z,30.00
2022-08-12T13:53:24.605Z,30.10
2022-08-12T13:58:37.429Z,30.10
2022-08-12T14:03:51.055Z,30.10
2022-08-12T14:08:56.780Z,30.30
2022-08-12T14:14:05.472Z,30.70
2022-08-12T14:19:22.670Z,31.10
2022-08-12T14:24:40.638Z,31.40
2022-08-12T14:30:04.635Z,31.70
2022-08-12T14:35:12.333Z,32.10
2022-08-12T14:40:23.414Z,32.60
2022-08-12T14:45:44.995Z,33.10
2022-08-12T14:51:02.583Z,33.80
2022-08-12T15:01:42.553Z,35.30
2022-08-12T15:06:52.645Z,35.80
2022-08-12T15:12:04.062Z,36.30
2022-08-12T15:17:08.333Z,37.00
2022-08-12T15:22:38.561Z,37.90
2022-08-12T15:28:05.291Z,38.60
2022-08-12T15:33:12.596Z,39.30
2022-08-12T15:38:20.419Z,39.90
2022-08-12T15:44:15.576Z,40.60
2022-08-12T15:48:49.425Z,40.70
2022-08-12T15:54:33.296Z,40.90
2022-08-12T16:00:03.740Z,41.30
2022-08-12T16:04:56.125Z,41.80
2022-08-12T16:10:05.407Z,42.30
2022-08-12T16:15:13.171Z,42.60
2022-08-12T16:20:21.401Z,42.10
2022-08-12T16:25:45.461Z,41.90
2022-08-12T16:30:50.299Z,41.80
2022-08-12T16:35:54.062Z,41.90
2022-08-12T16:40:57.524Z,41.70
2022-08-12T16:46:31.043Z,41.60
2022-08-12T16:51:30.850Z,41.60
2022-08-12T16:56:55.230Z,41.50
2022-08-12T17:02:05.671Z,41.40
2022-08-12T17:07:17.213Z,41.10
2022-08-12T17:12:22.513Z,40.60
2022-08-12T17:17:39.227Z,39.90
2022-08-12T17:22:56.435Z,39.20
2022-08-12T17:28:02.202Z,38.50
2022-08-12T17:33:13.285Z,37.80
2022-08-12T17:38:21.082Z,37.00
2022-08-12T17:43:51.778Z,36.40
2022-08-12T17:48:54.998Z,35.80
2022-08-12T17:54:10.709Z,35.30
2022-08-12T17:59:27.457Z,34.80
2022-08-12T18:05:03.116Z,34.30
2022-08-12T18:10:08.895Z,33.80
2022-08-12T18:15:26.530Z,33.50
2022-08-12T18:20:45.021Z,33.10
2022-08-12T18:26:16.710Z,32.80
2022-08-12T18:31:23.765Z,32.50
2022-08-12T18:36:30.490Z,32.20
2022-08-12T18:41:35.928Z,31.90
2022-08-12T18:46:54.079Z,31.70
2022-08-12T18:52:04.683Z,31.30
2022-08-12T18:57:16.166Z,31.00
2022-08-12T19:02:23.377Z,30.80
2022-08-12T19:07:29.932Z,30.50
2022-08-12T19:13:12.048Z,30.30
2022-08-12T19:18:29.851Z,30.00
2022-08-12T19:23:36.304Z,29.80
2022-08-12T19:28:41.554Z,29.60
2022-08-12T19:34:06.533Z,29.50
2022-08-12T19:39:15.235Z,29.40
2022-08-12T19:44:28.670Z,29.20
2022-08-12T19:49:32.108Z,29.10
2022-08-12T19:54:38.363Z,28.90
2022-08-12T20:00:03.373Z,28.90
2022-08-12T20:06:05.767Z,28.70
2022-08-12T20:10:37.102Z,28.60
2022-08-12T20:15:44.912Z,28.50
2022-08-12T20:20:49.233Z,28.30
2022-08-12T20:26:02.015Z,28.20
2022-08-12T20:31:11.925Z,28.00
2022-08-12T20:36:41.515Z,27.90
2022-08-12T20:41:43.882Z,27.70
2022-08-12T20:46:47.267Z,27.60
2022-08-12T20:51:55.948Z,27.50
2022-08-12T20:57:02.044Z,27.30
2022-08-12T21:02:13.756Z,27.20
2022-08-12T21:07:17.164Z,27.10
2022-08-12T21:12:34.099Z,27.00
2022-08-12T21:18:08.933Z,26.90
2022-08-12T21:23:05.955Z,26.80
2022-08-12T21:28:11.069Z,26.70
2022-08-12T21:33:17.086Z,26.70
2022-08-12T21:38:20.507Z,26.60
2022-08-12T21:43:44.649Z,26.50
2022-08-12T21:48:55.861Z,26.50
2022-08-12T21:54:07.195Z,26.40
2022-08-12T21:59:16.320Z,26.30
2022-08-12T22:04:37.951Z,26.20
2022-08-12T22:09:42.825Z,26.20
2022-08-12T22:14:48.465Z,26.20
2022-08-12T22:19:51.835Z,26.20
2022-08-12T22:24:58.412Z,26.20
2022-08-12T22:30:20.853Z,26.20
2022-08-12T22:35:56.682Z,26.20
2022-08-12T22:41:00.566Z,26.10
2022-08-12T22:46:23.070Z,26.10
2022-08-12T22:51:42.992Z,26.00
2022-08-12T22:56:57.530Z,25.90
2022-08-12T23:02:07.692Z,25.80
2022-08-12T23:07:14.960Z,25.70
2022-08-12T23:12:33.577Z,25.60
2022-08-12T23:17:40.770Z,25.50
2022-08-12T23:23:02.607Z,25.50
2022-08-12T23:28:29.725Z,25.40
2022-08-12T23:34:02.260Z,25.40
2022-08-12T23:39:01.958Z,25.40
2022-08-12T23:44:07.147Z,25.40
2022-08-12T23:49:26.732Z,25.40
2022-08-12T23:54:39.108Z,25.40
2022-08-12T23:59:55.391Z,25.30
